sensor_id;sensor_type;location;lat;lon;timestamp;pressure;altitude;pressure_sealevel;temperature
8362;BMP180;4218;48.326;14.304;2024-01-25T00:37:20;99283.00;;;8.10
8362;BMP180;4218;48.326;14.304;2024-01-25T02:10:14;99270.00;;;7.90
8362;BMP180;4218;48.326;14.304;2024-01-25T02:42:07;99264.00;;;7.80
8362;BMP180;4218;48.326;14.304;2024-01-25T03:02:39;99250.00;;;7.60
8362;BMP180;4218;48.326;14.304;2024-01-25T03:05:09;99239.00;;;7.70
8362;BMP180;4218;48.326;14.304;2024-01-25T03:07:52;99238.00;;;7.70
8362;BMP180;4218;48.326;14.304;2024-01-25T03:10:29;99226.00;;;7.70
8362;BMP180;4218;48.326;14.304;2024-01-25T03:18:24;99244.00;;;7.60
8362;BMP180;4218;48.326;14.304;2024-01-25T03:36:15;99242.00;;;7.50
8362;BMP180;4218;48.326;14.304;2024-01-25T04:57:32;99213.00;;;7.70
8362;BMP180;4218;48.326;14.304;2024-01-25T05:00:08;99221.00;;;7.80
8362;BMP180;4218;48.326;14.304;2024-01-25T05:02:43;99232.00;;;7.70
8362;BMP180;4218;48.326;14.304;2024-01-25T05:05:17;99219.00;;;7.60
8362;BMP180;4218;48.326;14.304;2024-01-25T05:07:54;99214.00;;;7.50
8362;BMP180;4218;48.326;14.304;2024-01-25T05:10:34;99230.00;;;7.50
8362;BMP180;4218;48.326;14.304;2024-01-25T05:52:41;99200.00;;;7.50
8362;BMP180;4218;48.326;14.304;2024-01-25T05:55:15;99226.00;;;7.60
8362;BMP180;4218;48.326;14.304;2024-01-25T05:58:09;99216.00;;;7.60
8362;BMP180;4218;48.326;14.304;2024-01-25T06:00:40;99227.00;;;7.70
8362;BMP180;4218;48.326;14.304;2024-01-25T06:14:29;99239.00;;;7.40
8362;BMP180;4218;48.326;14.304;2024-01-25T06:17:07;99224.00;;;7.30
8362;BMP180;4218;48.326;14.304;2024-01-25T06:19:54;99233.00;;;7.40
8362;BMP180;4218;48.326;14.304;2024-01-25T06:22:53;99233.00;;;7.40
8362;BMP180;4218;48.326;14.304;2024-01-25T06:25:22;99226.00;;;7.30
8362;BMP180;4218;48.326;14.304;2024-01-25T06:59:28;99282.00;;;7.30
8362;BMP180;4218;48.326;14.304;2024-01-25T07:07:37;99287.00;;;7.20
8362;BMP180;4218;48.326;14.304;2024-01-25T07:10:08;99307.00;;;7.20
8362;BMP180;4218;48.326;14.304;2024-01-25T07:12:38;99314.00;;;7.20
8362;BMP180;4218;48.326;14.304;2024-01-25T07:18:15;99318.00;;;7.30
8362;BMP180;4218;48.326;14.304;2024-01-25T07:28:49;99292.00;;;7.20
8362;BMP180;4218;48.326;14.304;2024-01-25T07:31:47;99298.00;;;7.20
8362;BMP180;4218;48.326;14.304;2024-01-25T07:34:41;99312.00;;;7.20
8362;BMP180;4218;48.326;14.304;2024-01-25T07:37:29;99314.00;;;7.00
8362;BMP180;4218;48.326;14.304;2024-01-25T07:43:15;99328.00;;;6.80
8362;BMP180;4218;48.326;14.304;2024-01-25T07:49:11;99356.00;;;6.80
8362;BMP180;4218;48.326;14.304;2024-01-25T07:57:36;99389.00;;;7.00
8362;BMP180;4218;48.326;14.304;2024-01-25T08:00:05;99375.00;;;7.10
8362;BMP180;4218;48.326;14.304;2024-01-25T09:05:59;99458.00;;;8.00
8362;BMP180;4218;48.326;14.304;2024-01-25T09:11:22;99433.00;;;7.90
8362;BMP180;4218;48.326;14.304;2024-01-25T09:13:59;99438.00;;;7.90
8362;BMP180;4218;48.326;14.304;2024-01-25T09:16:37;99451.00;;;7.90
8362;BMP180;4218;48.326;14.304;2024-01-25T09:19:43;99463.00;;;7.90
8362;BMP180;4218;48.326;14.304;2024-01-25T09:22:40;99447.00;;;8.00
8362;BMP180;4218;48.326;14.304;2024-01-25T09:31:29;99475.00;;;8.10
8362;BMP180;4218;48.326;14.304;2024-01-25T09:34:00;99472.00;;;8.20
8362;BMP180;4218;48.326;14.304;2024-01-25T09:36:25;99479.00;;;8.10
8362;BMP180;4218;48.326;14.304;2024-01-25T09:38:52;99460.00;;;8.20
8362;BMP180;4218;48.326;14.304;2024-01-25T09:41:22;99485.00;;;8.20
8362;BMP180;4218;48.326;14.304;2024-01-25T09:43:58;99463.00;;;8.20
8362;BMP180;4218;48.326;14.304;2024-01-25T09:46:28;99478.00;;;8.20
8362;BMP180;4218;48.326;14.304;2024-01-25T09:48:58;99474.00;;;8.10
8362;BMP180;4218;48.326;14.304;2024-01-25T10:03:45;99501.00;;;8.10
8362;BMP180;4218;48.326;14.304;2024-01-25T10:06:15;99507.00;;;8.00
8362;BMP180;4218;48.326;14.304;2024-01-25T10:08:45;99490.00;;;8.10
8362;BMP180;4218;48.326;14.304;2024-01-25T10:11:26;99503.00;;;8.20
8362;BMP180;4218;48.326;14.304;2024-01-25T10:14:00;99484.00;;;8.20
8362;BMP180;4218;48.326;14.304;2024-01-25T10:16:29;99478.00;;;8.30
8362;BMP180;4218;48.326;14.304;2024-01-25T10:19:31;99490.00;;;8.40
8362;BMP180;4218;48.326;14.304;2024-01-25T10:22:07;99474.00;;;8.20
8362;BMP180;4218;48.326;14.304;2024-01-25T10:24:41;99459.00;;;8.20
8362;BMP180;4218;48.326;14.304;2024-01-25T10:27:13;99463.00;;;8.20
8362;BMP180;4218;48.326;14.304;2024-01-25T10:29:44;99457.00;;;8.20
8362;BMP180;4218;48.326;14.304;2024-01-25T10:32:13;99451.00;;;8.20
8362;BMP180;4218;48.326;14.304;2024-01-25T10:34:39;99463.00;;;8.20
8362;BMP180;4218;48.326;14.304;2024-01-25T10:37:28;99447.00;;;8.30
8362;BMP180;4218;48.326;14.304;2024-01-25T10:39:58;99445.00;;;8.30
8362;BMP180;4218;48.326;14.304;2024-01-25T10:42:25;99466.00;;;8.40
8362;BMP180;4218;48.326;14.304;2024-01-25T10:45:03;99463.00;;;8.30
8362;BMP180;4218;48.326;14.304;2024-01-25T10:47:54;99463.00;;;8.30
8362;BMP180;4218;48.326;14.304;2024-01-25T10:51:12;99455.00;;;8.40
8362;BMP180;4218;48.326;14.304;2024-01-25T10:54:10;99456.00;;;8.30
8362;BMP180;4218;48.326;14.304;2024-01-25T11:00:54;99474.00;;;8.50
8362;BMP180;4218;48.326;14.304;2024-01-25T11:04:18;99453.00;;;8.20
8362;BMP180;4218;48.326;14.304;2024-01-25T11:10:21;99441.00;;;8.20
8362;BMP180;4218;48.326;14.304;2024-01-25T11:13:14;99472.00;;;8.30
8362;BMP180;4218;48.326;14.304;2024-01-25T11:19:54;99451.00;;;8.30
8362;BMP180;4218;48.326;14.304;2024-01-25T11:23:31;99453.00;;;8.40
8362;BMP180;4218;48.326;14.304;2024-01-25T11:29:08;99429.00;;;8.60
8362;BMP180;4218;48.326;14.304;2024-01-25T11:31:41;99435.00;;;8.60
8362;BMP180;4218;48.326;14.304;2024-01-25T11:34:17;99432.00;;;8.70
8362;BMP180;4218;48.326;14.304;2024-01-25T11:37:28;99447.00;;;9.00
8362;BMP180;4218;48.326;14.304;2024-01-25T11:40:47;99446.00;;;9.10
8362;BMP180;4218;48.326;14.304;2024-01-25T11:44:06;99445.00;;;9.00
8362;BMP180;4218;48.326;14.304;2024-01-25T11:47:32;99455.00;;;9.00
8362;BMP180;4218;48.326;14.304;2024-01-25T11:50:59;99434.00;;;9.00
8362;BMP180;4218;48.326;14.304;2024-01-25T11:54:06;99428.00;;;9.10
8362;BMP180;4218;48.326;14.304;2024-01-25T11:56:39;99435.00;;;9.10
8362;BMP180;4218;48.326;14.304;2024-01-25T12:00:05;99418.00;;;9.30
8362;BMP180;4218;48.326;14.304;2024-01-25T12:09:24;99428.00;;;8.90
8362;BMP180;4218;48.326;14.304;2024-01-25T12:12:23;99417.00;;;8.80
8362;BMP180;4218;48.326;14.304;2024-01-25T12:15:36;99411.00;;;8.50
8362;BMP180;4218;48.326;14.304;2024-01-25T12:18:43;99423.00;;;8.60
8362;BMP180;4218;48.326;14.304;2024-01-25T12:22:19;99429.00;;;8.70
8362;BMP180;4218;48.326;14.304;2024-01-25T12:25:42;99424.00;;;8.70
8362;BMP180;4218;48.326;14.304;2024-01-25T12:32:32;99420.00;;;8.60
8362;BMP180;4218;48.326;14.304;2024-01-25T12:35:37;99438.00;;;8.40
8362;BMP180;4218;48.326;14.304;2024-01-25T12:39:19;99432.00;;;8.20
8362;BMP180;4218;48.326;14.304;2024-01-25T12:42:25;99423.00;;;8.20
8362;BMP180;4218;48.326;14.304;2024-01-25T12:45:23;99444.00;;;8.40
8362;BMP180;4218;48.326;14.304;2024-01-25T12:49:06;99428.00;;;8.50
8362;BMP180;4218;48.326;14.304;2024-01-25T12:52:38;99440.00;;;8.60
8362;BMP180;4218;48.326;14.304;2024-01-25T13:00:43;99414.00;;;8.70
8362;BMP180;4218;48.326;14.304;2024-01-25T13:03:20;99423.00;;;8.70
8362;BMP180;4218;48.326;14.304;2024-01-25T13:06:09;99413.00;;;8.80
8362;BMP180;4218;48.326;14.304;2024-01-25T13:08:40;99429.00;;;8.80
8362;BMP180;4218;48.326;14.304;2024-01-25T13:11:21;99409.00;;;8.90
8362;BMP180;4218;48.326;14.304;2024-01-25T13:13:47;99425.00;;;9.00
8362;BMP180;4218;48.326;14.304;2024-01-25T13:33:44;99382.00;;;8.70
8362;BMP180;4218;48.326;14.304;2024-01-25T13:36:56;99408.00;;;8.50
8362;BMP180;4218;48.326;14.304;2024-01-25T13:39:46;99390.00;;;8.40
8362;BMP180;4218;48.326;14.304;2024-01-25T14:02:03;99409.00;;;8.60
8362;BMP180;4218;48.326;14.304;2024-01-25T15:27:04;99457.00;;;7.40
8362;BMP180;4218;48.326;14.304;2024-01-25T15:29:33;99447.00;;;7.30
8362;BMP180;4218;48.326;14.304;2024-01-25T15:32:13;99461.00;;;7.60
8362;BMP180;4218;48.326;14.304;2024-01-25T19:05:55;99512.00;;;5.40
8362;BMP180;4218;48.326;14.304;2024-01-25T21:04:12;99486.00;;;3.20
8362;BMP180;4218;48.326;14.304;2024-01-25T21:07:21;99475.00;;;3.00
